sensor_id;sensor_type;location;lat;lon;timestamp;temperature;humidity
851;DHT22;412;51.400;7.480;2023-04-25T00:01:46;10.30;99.90
851;DHT22;412;51.400;7.480;2023-04-25T00:04:12;10.40;99.90
851;DHT22;412;51.400;7.480;2023-04-25T00:06:38;10.40;99.90
851;DHT22;412;51.400;7.480;2023-04-25T00:09:04;10.40;99.90
851;DHT22;412;51.400;7.480;2023-04-25T00:11:33;10.40;99.90
851;DHT22;412;51.400;7.480;2023-04-25T00:13:59;10.40;99.90
851;DHT22;412;51.400;7.480;2023-04-25T00:16:27;10.40;99.90
851;DHT22;412;51.400;7.480;2023-04-25T00:18:54;10.50;99.90
851;DHT22;412;51.400;7.480;2023-04-25T00:21:20;10.50;99.90
851;DHT22;412;51.400;7.480;2023-04-25T00:23:46;10.50;99.90
851;DHT22;412;51.400;7.480;2023-04-25T00:26:12;10.50;99.90
851;DHT22;412;51.400;7.480;2023-04-25T00:28:39;10.50;99.90
851;DHT22;412;51.400;7.480;2023-04-25T00:31:05;10.50;99.90
851;DHT22;412;51.400;7.480;2023-04-25T00:33:31;10.50;99.90
851;DHT22;412;51.400;7.480;2023-04-25T00:35:57;10.50;99.90
851;DHT22;412;51.400;7.480;2023-04-25T00:38:22;10.50;99.90
851;DHT22;412;51.400;7.480;2023-04-25T00:40:48;10.40;99.90
851;DHT22;412;51.400;7.480;2023-04-25T00:43:14;10.50;99.90
851;DHT22;412;51.400;7.480;2023-04-25T00:45:40;10.50;99.90
851;DHT22;412;51.400;7.480;2023-04-25T00:48:06;10.50;99.90
851;DHT22;412;51.400;7.480;2023-04-25T00:50:35;10.60;99.90
851;DHT22;412;51.400;7.480;2023-04-25T00:53:02;10.50;99.90
851;DHT22;412;51.400;7.480;2023-04-25T00:55:29;10.50;99.90
851;DHT22;412;51.400;7.480;2023-04-25T00:57:57;10.50;99.90
851;DHT22;412;51.400;7.480;2023-04-25T01:00:23;10.60;99.90
851;DHT22;412;51.400;7.480;2023-04-25T01:02:49;10.50;99.90
851;DHT22;412;51.400;7.480;2023-04-25T01:05:15;10.50;99.90
851;DHT22;412;51.400;7.480;2023-04-25T01:07:41;10.50;99.90
851;DHT22;412;51.400;7.480;2023-04-25T01:10:07;10.50;99.90
851;DHT22;412;51.400;7.480;2023-04-25T01:12:34;10.50;99.90
851;DHT22;412;51.400;7.480;2023-04-25T01:14:59;10.60;99.90
851;DHT22;412;51.400;7.480;2023-04-25T01:17:25;10.50;99.90
851;DHT22;412;51.400;7.480;2023-04-25T01:19:52;10.50;99.90
851;DHT22;412;51.400;7.480;2023-04-25T01:22:19;10.60;99.90
851;DHT22;412;51.400;7.480;2023-04-25T01:24:45;10.50;99.90
851;DHT22;412;51.400;7.480;2023-04-25T01:27:10;10.50;99.90
851;DHT22;412;51.400;7.480;2023-04-25T01:29:37;10.50;99.90
851;DHT22;412;51.400;7.480;2023-04-25T01:32:03;10.50;99.90
851;DHT22;412;51.400;7.480;2023-04-25T01:34:29;10.50;99.90
851;DHT22;412;51.400;7.480;2023-04-25T01:36:55;10.50;99.90
851;DHT22;412;51.400;7.480;2023-04-25T01:39:21;10.50;99.90
851;DHT22;412;51.400;7.480;2023-04-25T01:41:47;10.50;99.90
851;DHT22;412;51.400;7.480;2023-04-25T01:44:13;10.50;99.90
851;DHT22;412;51.400;7.480;2023-04-25T01:46:40;10.50;99.90
851;DHT22;412;51.400;7.480;2023-04-25T01:49:06;10.50;99.90
851;DHT22;412;51.400;7.480;2023-04-25T01:51:32;10.50;99.90
851;DHT22;412;51.400;7.480;2023-04-25T01:53:58;10.50;99.90
851;DHT22;412;51.400;7.480;2023-04-25T01:56:24;10.50;99.90
851;DHT22;412;51.400;7.480;2023-04-25T01:58:51;10.40;99.90
851;DHT22;412;51.400;7.480;2023-04-25T02:01:17;10.40;99.90
851;DHT22;412;51.400;7.480;2023-04-25T02:03:43;10.40;99.90
851;DHT22;412;51.400;7.480;2023-04-25T02:06:09;10.40;99.90
851;DHT22;412;51.400;7.480;2023-04-25T02:08:35;10.40;99.90
851;DHT22;412;51.400;7.480;2023-04-25T02:11:02;10.40;99.90
851;DHT22;412;51.400;7.480;2023-04-25T02:13:28;10.40;99.90
851;DHT22;412;51.400;7.480;2023-04-25T02:15:54;10.40;99.90
851;DHT22;412;51.400;7.480;2023-04-25T02:18:20;10.40;99.90
851;DHT22;412;51.400;7.480;2023-04-25T02:20:46;10.50;99.90
851;DHT22;412;51.400;7.480;2023-04-25T02:23:12;10.40;99.90
851;DHT22;412;51.400;7.480;2023-04-25T02:25:38;10.40;99.90
851;DHT22;412;51.400;7.480;2023-04-25T02:28:03;10.40;99.90
851;DHT22;412;51.400;7.480;2023-04-25T02:30:29;10.40;99.90
851;DHT22;412;51.400;7.480;2023-04-25T02:32:55;10.40;99.90
851;DHT22;412;51.400;7.480;2023-04-25T02:35:21;10.40;99.90
851;DHT22;412;51.400;7.480;2023-04-25T02:37:47;10.40;99.90
851;DHT22;412;51.400;7.480;2023-04-25T02:40:16;10.40;99.90
851;DHT22;412;51.400;7.480;2023-04-25T02:42:41;10.40;99.90
851;DHT22;412;51.400;7.480;2023-04-25T02:45:08;10.40;99.90
851;DHT22;412;51.400;7.480;2023-04-25T02:47:33;10.40;99.90
851;DHT22;412;51.400;7.480;2023-04-25T02:49:59;10.40;99.90
851;DHT22;412;51.400;7.480;2023-04-25T02:52:25;10.40;99.90
851;DHT22;412;51.400;7.480;2023-04-25T02:54:51;10.40;99.90
851;DHT22;412;51.400;7.480;2023-04-25T02:57:17;10.30;99.90
851;DHT22;412;51.400;7.480;2023-04-25T02:59:42;10.40;99.90
851;DHT22;412;51.400;7.480;2023-04-25T03:02:08;10.30;99.90
851;DHT22;412;51.400;7.480;2023-04-25T03:04:34;10.30;99.90
851;DHT22;412;51.400;7.480;2023-04-25T03:06:59;10.30;99.90
851;DHT22;412;51.400;7.480;2023-04-25T03:09:25;10.30;99.90
851;DHT22;412;51.400;7.480;2023-04-25T03:11:51;10.30;99.90
851;DHT22;412;51.400;7.480;2023-04-25T03:14:17;10.30;99.90
851;DHT22;412;51.400;7.480;2023-04-25T03:16:42;10.30;99.90
851;DHT22;412;51.400;7.480;2023-04-25T03:19:08;10.30;99.90
851;DHT22;412;51.400;7.480;2023-04-25T03:21:34;10.30;99.90
851;DHT22;412;51.400;7.480;2023-04-25T03:24:02;10.30;99.90
851;DHT22;412;51.400;7.480;2023-04-25T03:26:28;10.30;99.90
851;DHT22;412;51.400;7.480;2023-04-25T03:28:54;10.30;99.90
851;DHT22;412;51.400;7.480;2023-04-25T03:31:20;10.30;99.90
851;DHT22;412;51.400;7.480;2023-04-25T03:33:45;10.30;99.90
851;DHT22;412;51.400;7.480;2023-04-25T03:36:11;10.30;99.90
851;DHT22;412;51.400;7.480;2023-04-25T03:38:37;10.30;99.90
851;DHT22;412;51.400;7.480;2023-04-25T03:41:03;10.30;99.90
851;DHT22;412;51.400;7.480;2023-04-25T03:43:29;10.30;99.90
851;DHT22;412;51.400;7.480;2023-04-25T03:45:54;10.30;99.90
851;DHT22;412;51.400;7.480;2023-04-25T03:48:20;10.20;99.90
851;DHT22;412;51.400;7.480;2023-04-25T03:50:51;10.20;99.90
851;DHT22;412;51.400;7.480;2023-04-25T03:53:17;10.20;99.90
851;DHT22;412;51.400;7.480;2023-04-25T03:55:42;10.30;99.90
851;DHT22;412;51.400;7.480;2023-04-25T03:58:08;10.30;99.90
851;DHT22;412;51.400;7.480;2023-04-25T04:00:35;10.30;99.90
851;DHT22;412;51.400;7.480;2023-04-25T04:03:01;10.20;99.90
851;DHT22;412;51.400;7.480;2023-04-25T04:05:27;10.20;99.90
851;DHT22;412;51.400;7.480;2023-04-25T04:07:53;10.20;99.90
851;DHT22;412;51.400;7.480;2023-04-25T04:10:19;10.10;99.90
851;DHT22;412;51.400;7.480;2023-04-25T04:12:45;10.10;99.90
851;DHT22;412;51.400;7.480;2023-04-25T04:15:11;10.10;99.90
851;DHT22;412;51.400;7.480;2023-04-25T04:17:37;10.10;99.90
851;DHT22;412;51.400;7.480;2023-04-25T04:20:04;10.10;99.90
851;DHT22;412;51.400;7.480;2023-04-25T04:22:30;10.10;99.90
851;DHT22;412;51.400;7.480;2023-04-25T04:24:55;10.10;99.90
851;DHT22;412;51.400;7.480;2023-04-25T04:27:22;10.10;99.90
851;DHT22;412;51.400;7.480;2023-04-25T04:29:49;10.10;99.90
851;DHT22;412;51.400;7.480;2023-04-25T04:32:15;10.10;99.90
851;DHT22;412;51.400;7.480;2023-04-25T04:34:41;10.20;99.90
851;DHT22;412;51.400;7.480;2023-04-25T04:37:07;10.20;99.90
851;DHT22;412;51.400;7.480;2023-04-25T04:39:34;10.20;99.90
851;DHT22;412;51.400;7.480;2023-04-25T04:41:59;10.20;99.90
851;DHT22;412;51.400;7.480;2023-04-25T04:44:27;10.10;99.90
851;DHT22;412;51.400;7.480;2023-04-25T04:46:54;9.90;99.90
851;DHT22;412;51.400;7.480;2023-04-25T04:49:20;9.80;99.90
851;DHT22;412;51.400;7.480;2023-04-25T04:51:46;9.80;99.90
851;DHT22;412;51.400;7.480;2023-04-25T04:54:12;9.60;99.90
851;DHT22;412;51.400;7.480;2023-04-25T04:56:38;9.60;99.90
851;DHT22;412;51.400;7.480;2023-04-25T04:59:04;9.60;99.90
851;DHT22;412;51.400;7.480;2023-04-25T05:01:30;9.50;99.90
851;DHT22;412;51.400;7.480;2023-04-25T05:03:56;9.60;99.90
851;DHT22;412;51.400;7.480;2023-04-25T05:06:29;9.60;99.90
851;DHT22;412;51.400;7.480;2023-04-25T05:08:56;9.60;99.90
851;DHT22;412;51.400;7.480;2023-04-25T05:11:22;9.50;99.90
851;DHT22;412;51.400;7.480;2023-04-25T05:13:50;9.60;99.90
851;DHT22;412;51.400;7.480;2023-04-25T05:16:16;9.50;99.90
851;DHT22;412;51.400;7.480;2023-04-25T05:18:42;9.50;99.90
851;DHT22;412;51.400;7.480;2023-04-25T05:21:07;9.70;99.90
851;DHT22;412;51.400;7.480;2023-04-25T05:23:33;9.60;99.90
851;DHT22;412;51.400;7.480;2023-04-25T05:25:59;9.60;99.90
851;DHT22;412;51.400;7.480;2023-04-25T05:28:25;9.60;99.90
851;DHT22;412;51.400;7.480;2023-04-25T05:30:51;9.60;99.90
851;DHT22;412;51.400;7.480;2023-04-25T05:33:18;9.50;99.90
851;DHT22;412;51.400;7.480;2023-04-25T05:35:44;9.50;99.90
851;DHT22;412;51.400;7.480;2023-04-25T05:38:10;9.50;99.90
851;DHT22;412;51.400;7.480;2023-04-25T05:40:36;9.50;99.90
851;DHT22;412;51.400;7.480;2023-04-25T05:43:02;9.50;99.90
851;DHT22;412;51.400;7.480;2023-04-25T05:45:27;9.50;99.90
851;DHT22;412;51.400;7.480;2023-04-25T05:47:53;9.50;99.90
851;DHT22;412;51.400;7.480;2023-04-25T05:50:19;9.50;99.90
851;DHT22;412;51.400;7.480;2023-04-25T05:52:45;9.60;99.90
851;DHT22;412;51.400;7.480;2023-04-25T05:55:10;9.60;99.90
851;DHT22;412;51.400;7.480;2023-04-25T05:57:36;9.70;99.90
851;DHT22;412;51.400;7.480;2023-04-25T06:00:02;9.70;99.90
851;DHT22;412;51.400;7.480;2023-04-25T06:02:29;9.70;99.90
851;DHT22;412;51.400;7.480;2023-04-25T06:04:55;9.70;99.90
851;DHT22;412;51.400;7.480;2023-04-25T06:07:20;9.70;99.90
851;DHT22;412;51.400;7.480;2023-04-25T06:09:46;9.80;99.90
851;DHT22;412;51.400;7.480;2023-04-25T06:12:12;9.80;99.90
851;DHT22;412;51.400;7.480;2023-04-25T06:14:38;9.80;99.90
851;DHT22;412;51.400;7.480;2023-04-25T06:17:04;9.90;99.90
851;DHT22;412;51.400;7.480;2023-04-25T06:19:35;9.90;99.90
851;DHT22;412;51.400;7.480;2023-04-25T06:22:01;10.00;99.90
851;DHT22;412;51.400;7.480;2023-04-25T06:24:27;10.00;99.90
851;DHT22;412;51.400;7.480;2023-04-25T06:26:53;10.00;99.90
851;DHT22;412;51.400;7.480;2023-04-25T06:29:19;10.00;99.90
851;DHT22;412;51.400;7.480;2023-04-25T06:31:45;10.10;99.90
851;DHT22;412;51.400;7.480;2023-04-25T06:34:10;10.10;99.90
851;DHT22;412;51.400;7.480;2023-04-25T06:36:36;10.20;99.90
851;DHT22;412;51.400;7.480;2023-04-25T06:39:02;10.20;99.90
851;DHT22;412;51.400;7.480;2023-04-25T06:41:28;10.20;99.90
851;DHT22;412;51.400;7.480;2023-04-25T06:43:54;10.30;99.90
851;DHT22;412;51.400;7.480;2023-04-25T06:46:19;10.30;99.90
851;DHT22;412;51.400;7.480;2023-04-25T06:48:45;10.30;99.90
851;DHT22;412;51.400;7.480;2023-04-25T06:51:11;10.40;99.90
851;DHT22;412;51.400;7.480;2023-04-25T06:53:39;10.40;99.90
851;DHT22;412;51.400;7.480;2023-04-25T06:56:05;10.50;99.90
851;DHT22;412;51.400;7.480;2023-04-25T06:58:31;10.50;99.90
851;DHT22;412;51.400;7.480;2023-04-25T07:00:57;10.60;99.90
851;DHT22;412;51.400;7.480;2023-04-25T07:03:23;10.70;99.90
851;DHT22;412;51.400;7.480;2023-04-25T07:05:49;10.70;99.90
851;DHT22;412;51.400;7.480;2023-04-25T07:08:16;10.80;99.90
851;DHT22;412;51.400;7.480;2023-04-25T07:10:42;10.70;99.90
851;DHT22;412;51.400;7.480;2023-04-25T07:13:08;10.80;99.90
851;DHT22;412;51.400;7.480;2023-04-25T07:15:34;10.90;99.90
851;DHT22;412;51.400;7.480;2023-04-25T07:18:00;10.90;99.90
851;DHT22;412;51.400;7.480;2023-04-25T07:20:25;11.00;99.90
851;DHT22;412;51.400;7.480;2023-04-25T07:22:53;11.10;99.90
851;DHT22;412;51.400;7.480;2023-04-25T07:25:19;11.20;99.90
851;DHT22;412;51.400;7.480;2023-04-25T07:27:45;11.30;99.90
851;DHT22;412;51.400;7.480;2023-04-25T07:30:11;11.30;99.90
851;DHT22;412;51.400;7.480;2023-04-25T07:32:38;11.40;99.90
851;DHT22;412;51.400;7.480;2023-04-25T07:35:05;11.40;99.90
851;DHT22;412;51.400;7.480;2023-04-25T07:37:33;11.40;99.90
851;DHT22;412;51.400;7.480;2023-04-25T07:39:58;11.50;99.90
851;DHT22;412;51.400;7.480;2023-04-25T07:42:24;11.50;99.90
851;DHT22;412;51.400;7.480;2023-04-25T07:44:50;11.60;99.90
851;DHT22;412;51.400;7.480;2023-04-25T07:47:17;11.60;99.90
851;DHT22;412;51.400;7.480;2023-04-25T07:49:44;11.60;99.90
851;DHT22;412;51.400;7.480;2023-04-25T07:52:11;11.60;99.90
851;DHT22;412;51.400;7.480;2023-04-25T07:54:36;11.60;99.80
851;DHT22;412;51.400;7.480;2023-04-25T07:57:02;11.60;99.90
851;DHT22;412;51.400;7.480;2023-04-25T07:59:28;11.40;99.90
851;DHT22;412;51.400;7.480;2023-04-25T08:01:54;11.40;99.90
851;DHT22;412;51.400;7.480;2023-04-25T08:04:20;11.30;99.90
851;DHT22;412;51.400;7.480;2023-04-25T08:06:46;11.20;99.90
851;DHT22;412;51.400;7.480;2023-04-25T08:09:12;11.20;99.90
851;DHT22;412;51.400;7.480;2023-04-25T08:11:38;11.20;99.90
851;DHT22;412;51.400;7.480;2023-04-25T08:14:03;11.20;99.90
851;DHT22;412;51.400;7.480;2023-04-25T08:16:29;11.20;99.90
851;DHT22;412;51.400;7.480;2023-04-25T08:18:55;11.20;99.90
851;DHT22;412;51.400;7.480;2023-04-25T08:21:21;11.30;99.90
851;DHT22;412;51.400;7.480;2023-04-25T08:23:47;11.30;99.90
851;DHT22;412;51.400;7.480;2023-04-25T08:26:12;11.40;99.90
851;DHT22;412;51.400;7.480;2023-04-25T08:28:38;11.50;99.90
851;DHT22;412;51.400;7.480;2023-04-25T08:31:04;11.50;99.90
851;DHT22;412;51.400;7.480;2023-04-25T08:33:30;11.50;99.90
851;DHT22;412;51.400;7.480;2023-04-25T08:35:57;11.50;99.90
851;DHT22;412;51.400;7.480;2023-04-25T08:38:22;11.50;99.90
851;DHT22;412;51.400;7.480;2023-04-25T08:40:51;11.40;99.90
851;DHT22;412;51.400;7.480;2023-04-25T08:43:19;11.40;99.90
851;DHT22;412;51.400;7.480;2023-04-25T08:45:46;11.40;99.80
851;DHT22;412;51.400;7.480;2023-04-25T08:48:13;11.50;99.90
851;DHT22;412;51.400;7.480;2023-04-25T08:50:49;11.70;99.90
851;DHT22;412;51.400;7.480;2023-04-25T08:53:17;11.80;99.90
851;DHT22;412;51.400;7.480;2023-04-25T08:55:46;12.00;99.90
851;DHT22;412;51.400;7.480;2023-04-25T08:58:13;12.10;98.80
851;DHT22;412;51.400;7.480;2023-04-25T09:00:40;12.20;99.40
851;DHT22;412;51.400;7.480;2023-04-25T09:03:06;12.10;97.50
851;DHT22;412;51.400;7.480;2023-04-25T09:05:35;12.10;98.00
851;DHT22;412;51.400;7.480;2023-04-25T09:08:01;12.20;99.10
851;DHT22;412;51.400;7.480;2023-04-25T09:10:28;12.40;96.10
851;DHT22;412;51.400;7.480;2023-04-25T09:13:13;12.50;94.20
851;DHT22;412;51.400;7.480;2023-04-25T09:15:50;12.60;92.40
851;DHT22;412;51.400;7.480;2023-04-25T09:18:31;12.70;93.00
851;DHT22;412;51.400;7.480;2023-04-25T09:21:08;12.70;92.30
851;DHT22;412;51.400;7.480;2023-04-25T09:23:47;12.80;92.10
851;DHT22;412;51.400;7.480;2023-04-25T09:26:15;12.80;93.90
851;DHT22;412;51.400;7.480;2023-04-25T09:28:42;12.70;93.20
851;DHT22;412;51.400;7.480;2023-04-25T09:31:10;12.80;92.70
851;DHT22;412;51.400;7.480;2023-04-25T09:33:40;12.80;92.20
851;DHT22;412;51.400;7.480;2023-04-25T09:36:08;12.90;91.70
851;DHT22;412;51.400;7.480;2023-04-25T09:38:42;12.90;90.40
851;DHT22;412;51.400;7.480;2023-04-25T09:41:09;13.00;90.70
851;DHT22;412;51.400;7.480;2023-04-25T09:43:36;13.20;92.00
851;DHT22;412;51.400;7.480;2023-04-25T09:46:02;13.40;91.50
851;DHT22;412;51.400;7.480;2023-04-25T09:48:28;13.50;91.20
851;DHT22;412;51.400;7.480;2023-04-25T09:51:07;13.70;85.80
851;DHT22;412;51.400;7.480;2023-04-25T09:53:39;13.90;85.00
851;DHT22;412;51.400;7.480;2023-04-25T09:56:06;13.90;82.10
851;DHT22;412;51.400;7.480;2023-04-25T09:58:33;14.00;81.80
851;DHT22;412;51.400;7.480;2023-04-25T10:01:01;14.10;83.10
851;DHT22;412;51.400;7.480;2023-04-25T10:03:30;14.00;80.90
851;DHT22;412;51.400;7.480;2023-04-25T10:05:59;13.90;78.30
851;DHT22;412;51.400;7.480;2023-04-25T10:08:27;13.60;79.70
851;DHT22;412;51.400;7.480;2023-04-25T10:10:54;13.40;78.90
851;DHT22;412;51.400;7.480;2023-04-25T10:13:20;13.30;79.20
851;DHT22;412;51.400;7.480;2023-04-25T10:15:47;13.20;80.60
851;DHT22;412;51.400;7.480;2023-04-25T10:18:13;13.10;83.80
851;DHT22;412;51.400;7.480;2023-04-25T10:20:39;13.00;85.10
851;DHT22;412;51.400;7.480;2023-04-25T10:23:13;12.80;86.20
851;DHT22;412;51.400;7.480;2023-04-25T10:25:40;12.80;87.40
851;DHT22;412;51.400;7.480;2023-04-25T10:28:06;12.80;86.40
851;DHT22;412;51.400;7.480;2023-04-25T10:30:32;12.80;87.00
851;DHT22;412;51.400;7.480;2023-04-25T10:32:59;12.90;87.50
851;DHT22;412;51.400;7.480;2023-04-25T10:35:27;13.00;87.80
851;DHT22;412;51.400;7.480;2023-04-25T10:38:04;13.10;84.30
851;DHT22;412;51.400;7.480;2023-04-25T10:40:31;13.20;89.90
851;DHT22;412;51.400;7.480;2023-04-25T10:46:12;13.60;83.50
851;DHT22;412;51.400;7.480;2023-04-25T10:48:50;14.10;81.50
851;DHT22;412;51.400;7.480;2023-04-25T10:51:29;14.20;79.20
851;DHT22;412;51.400;7.480;2023-04-25T10:56:26;14.30;71.70
851;DHT22;412;51.400;7.480;2023-04-25T10:59:06;14.30;68.90
851;DHT22;412;51.400;7.480;2023-04-25T11:01:37;14.20;69.60
851;DHT22;412;51.400;7.480;2023-04-25T11:04:04;14.10;72.50
851;DHT22;412;51.400;7.480;2023-04-25T11:07:13;14.20;70.10
851;DHT22;412;51.400;7.480;2023-04-25T11:09:39;14.10;68.30
851;DHT22;412;51.400;7.480;2023-04-25T11:12:08;14.00;69.90
851;DHT22;412;51.400;7.480;2023-04-25T11:14:34;13.90;73.10
851;DHT22;412;51.400;7.480;2023-04-25T11:17:00;13.80;73.10
851;DHT22;412;51.400;7.480;2023-04-25T11:19:27;13.70;73.70
851;DHT22;412;51.400;7.480;2023-04-25T11:22:00;13.70;69.90
851;DHT22;412;51.400;7.480;2023-04-25T11:24:33;13.50;70.80
851;DHT22;412;51.400;7.480;2023-04-25T11:27:01;13.50;71.10
851;DHT22;412;51.400;7.480;2023-04-25T11:29:30;13.40;72.30
851;DHT22;412;51.400;7.480;2023-04-25T11:31:57;13.30;74.60
851;DHT22;412;51.400;7.480;2023-04-25T11:34:24;13.20;73.60
851;DHT22;412;51.400;7.480;2023-04-25T11:36:51;13.00;74.00
851;DHT22;412;51.400;7.480;2023-04-25T11:39:20;13.00;75.20
851;DHT22;412;51.400;7.480;2023-04-25T11:41:46;12.80;77.70
851;DHT22;412;51.400;7.480;2023-04-25T11:44:16;12.70;80.30
851;DHT22;412;51.400;7.480;2023-04-25T11:46:42;12.70;83.00
851;DHT22;412;51.400;7.480;2023-04-25T11:49:08;12.70;84.60
851;DHT22;412;51.400;7.480;2023-04-25T11:51:45;12.60;83.90
851;DHT22;412;51.400;7.480;2023-04-25T11:54:12;12.60;86.40
851;DHT22;412;51.400;7.480;2023-04-25T11:56:45;12.60;87.90
851;DHT22;412;51.400;7.480;2023-04-25T11:59:11;12.60;88.80
851;DHT22;412;51.400;7.480;2023-04-25T12:01:46;12.60;86.50
851;DHT22;412;51.400;7.480;2023-04-25T12:04:14;12.60;85.30
851;DHT22;412;51.400;7.480;2023-04-25T12:06:41;12.60;85.70
851;DHT22;412;51.400;7.480;2023-04-25T12:09:09;12.60;83.80
851;DHT22;412;51.400;7.480;2023-04-25T12:11:52;12.60;83.40
851;DHT22;412;51.400;7.480;2023-04-25T12:14:26;12.60;85.80
851;DHT22;412;51.400;7.480;2023-04-25T12:16:58;12.60;85.20
851;DHT22;412;51.400;7.480;2023-04-25T12:19:25;12.70;86.10
851;DHT22;412;51.400;7.480;2023-04-25T12:21:51;12.70;85.20
851;DHT22;412;51.400;7.480;2023-04-25T12:24:22;12.90;86.10
851;DHT22;412;51.400;7.480;2023-04-25T12:26:58;13.20;86.30
851;DHT22;412;51.400;7.480;2023-04-25T12:29:25;13.50;80.90
851;DHT22;412;51.400;7.480;2023-04-25T12:31:52;13.70;79.10
851;DHT22;412;51.400;7.480;2023-04-25T12:34:19;13.90;78.20
851;DHT22;412;51.400;7.480;2023-04-25T12:36:45;14.10;78.40
851;DHT22;412;51.400;7.480;2023-04-25T12:39:18;14.40;72.70
851;DHT22;412;51.400;7.480;2023-04-25T12:41:46;14.50;70.30
851;DHT22;412;51.400;7.480;2023-04-25T12:44:12;14.60;67.80
851;DHT22;412;51.400;7.480;2023-04-25T12:46:39;14.70;66.60
851;DHT22;412;51.400;7.480;2023-04-25T12:49:05;14.90;66.00
851;DHT22;412;51.400;7.480;2023-04-25T12:51:34;15.10;68.20
851;DHT22;412;51.400;7.480;2023-04-25T12:54:00;15.30;64.50
851;DHT22;412;51.400;7.480;2023-04-25T12:56:27;15.30;64.40
851;DHT22;412;51.400;7.480;2023-04-25T12:58:53;15.50;65.00
851;DHT22;412;51.400;7.480;2023-04-25T13:01:19;15.70;66.40
851;DHT22;412;51.400;7.480;2023-04-25T13:03:46;15.80;63.20
851;DHT22;412;51.400;7.480;2023-04-25T13:06:13;15.70;63.90
851;DHT22;412;51.400;7.480;2023-04-25T13:08:39;15.70;63.70
851;DHT22;412;51.400;7.480;2023-04-25T13:11:05;15.70;65.90
851;DHT22;412;51.400;7.480;2023-04-25T13:13:31;15.70;64.80
851;DHT22;412;51.400;7.480;2023-04-25T13:15:58;15.70;61.10
851;DHT22;412;51.400;7.480;2023-04-25T13:18:24;15.60;63.30
851;DHT22;412;51.400;7.480;2023-04-25T13:20:53;15.50;63.60
851;DHT22;412;51.400;7.480;2023-04-25T13:23:19;15.40;66.60
851;DHT22;412;51.400;7.480;2023-04-25T13:25:46;15.30;68.00
851;DHT22;412;51.400;7.480;2023-04-25T13:28:12;15.10;69.20
851;DHT22;412;51.400;7.480;2023-04-25T13:30:39;14.90;68.90
851;DHT22;412;51.400;7.480;2023-04-25T13:33:04;14.80;71.00
851;DHT22;412;51.400;7.480;2023-04-25T13:35:33;14.70;69.50
851;DHT22;412;51.400;7.480;2023-04-25T13:37:59;14.50;67.80
851;DHT22;412;51.400;7.480;2023-04-25T13:40:26;14.40;67.60
851;DHT22;412;51.400;7.480;2023-04-25T13:42:52;14.30;69.40
851;DHT22;412;51.400;7.480;2023-04-25T13:45:19;14.20;68.20
851;DHT22;412;51.400;7.480;2023-04-25T13:47:45;14.00;67.30
851;DHT22;412;51.400;7.480;2023-04-25T13:50:11;13.90;68.70
851;DHT22;412;51.400;7.480;2023-04-25T13:52:36;13.80;68.00
851;DHT22;412;51.400;7.480;2023-04-25T13:55:02;13.70;68.40
851;DHT22;412;51.400;7.480;2023-04-25T13:57:30;13.60;70.60
851;DHT22;412;51.400;7.480;2023-04-25T13:59:56;13.50;67.70
851;DHT22;412;51.400;7.480;2023-04-25T14:02:22;13.50;69.30
851;DHT22;412;51.400;7.480;2023-04-25T14:04:48;13.40;70.40
851;DHT22;412;51.400;7.480;2023-04-25T14:07:15;13.40;69.00
851;DHT22;412;51.400;7.480;2023-04-25T14:09:42;13.30;69.40
851;DHT22;412;51.400;7.480;2023-04-25T14:12:07;13.30;68.60
851;DHT22;412;51.400;7.480;2023-04-25T14:14:33;13.30;70.20
851;DHT22;412;51.400;7.480;2023-04-25T14:17:01;13.30;70.20
851;DHT22;412;51.400;7.480;2023-04-25T14:19:27;13.20;69.70
851;DHT22;412;51.400;7.480;2023-04-25T14:21:54;13.30;70.80
851;DHT22;412;51.400;7.480;2023-04-25T14:24:20;13.30;72.70
851;DHT22;412;51.400;7.480;2023-04-25T14:26:46;13.40;75.70
851;DHT22;412;51.400;7.480;2023-04-25T14:29:12;13.50;75.30
851;DHT22;412;51.400;7.480;2023-04-25T14:31:39;13.70;74.20
851;DHT22;412;51.400;7.480;2023-04-25T14:34:05;13.90;74.50
851;DHT22;412;51.400;7.480;2023-04-25T14:36:31;14.10;78.80
851;DHT22;412;51.400;7.480;2023-04-25T14:38:58;14.30;75.00
851;DHT22;412;51.400;7.480;2023-04-25T14:41:27;14.50;72.40
851;DHT22;412;51.400;7.480;2023-04-25T14:43:53;14.60;69.00
851;DHT22;412;51.400;7.480;2023-04-25T14:46:19;14.60;69.60
851;DHT22;412;51.400;7.480;2023-04-25T14:48:46;14.60;70.70
851;DHT22;412;51.400;7.480;2023-04-25T14:51:12;14.70;70.20
851;DHT22;412;51.400;7.480;2023-04-25T14:53:39;14.70;70.10
851;DHT22;412;51.400;7.480;2023-04-25T14:56:05;14.80;68.10
851;DHT22;412;51.400;7.480;2023-04-25T14:58:31;14.70;66.40
851;DHT22;412;51.400;7.480;2023-04-25T15:00:57;14.70;67.80
851;DHT22;412;51.400;7.480;2023-04-25T15:03:22;14.70;65.00
851;DHT22;412;51.400;7.480;2023-04-25T15:05:51;14.70;65.30
851;DHT22;412;51.400;7.480;2023-04-25T15:08:17;14.70;66.90
851;DHT22;412;51.400;7.480;2023-04-25T15:10:43;14.60;65.80
851;DHT22;412;51.400;7.480;2023-04-25T15:13:10;14.50;65.50
851;DHT22;412;51.400;7.480;2023-04-25T15:15:36;14.50;65.20
851;DHT22;412;51.400;7.480;2023-04-25T15:18:02;14.40;68.20
851;DHT22;412;51.400;7.480;2023-04-25T15:20:28;14.40;67.80
851;DHT22;412;51.400;7.480;2023-04-25T15:22:54;14.60;68.70
851;DHT22;412;51.400;7.480;2023-04-25T15:25:20;14.50;64.00
851;DHT22;412;51.400;7.480;2023-04-25T15:27:46;14.50;64.40
851;DHT22;412;51.400;7.480;2023-04-25T15:30:17;14.30;65.00
851;DHT22;412;51.400;7.480;2023-04-25T15:32:44;14.20;63.30
851;DHT22;412;51.400;7.480;2023-04-25T15:35:10;14.10;63.50
851;DHT22;412;51.400;7.480;2023-04-25T15:37:37;14.00;64.50
851;DHT22;412;51.400;7.480;2023-04-25T15:40:08;13.90;68.80
851;DHT22;412;51.400;7.480;2023-04-25T15:42:48;13.80;73.90
851;DHT22;412;51.400;7.480;2023-04-25T15:45:16;13.60;73.20
851;DHT22;412;51.400;7.480;2023-04-25T15:47:43;13.60;75.30
851;DHT22;412;51.400;7.480;2023-04-25T15:50:10;13.50;76.90
851;DHT22;412;51.400;7.480;2023-04-25T15:52:37;13.50;75.80
851;DHT22;412;51.400;7.480;2023-04-25T15:55:06;13.40;75.50
851;DHT22;412;51.400;7.480;2023-04-25T15:57:34;13.50;75.60
851;DHT22;412;51.400;7.480;2023-04-25T16:00:01;13.50;78.90
851;DHT22;412;51.400;7.480;2023-04-25T16:02:29;13.40;78.10
851;DHT22;412;51.400;7.480;2023-04-25T16:04:56;13.50;77.60
851;DHT22;412;51.400;7.480;2023-04-25T16:07:22;13.50;76.50
851;DHT22;412;51.400;7.480;2023-04-25T16:09:47;13.40;78.50
851;DHT22;412;51.400;7.480;2023-04-25T16:12:14;13.50;76.50
851;DHT22;412;51.400;7.480;2023-04-25T16:14:40;13.50;76.90
851;DHT22;412;51.400;7.480;2023-04-25T16:17:06;13.50;77.00
851;DHT22;412;51.400;7.480;2023-04-25T16:19:32;13.40;74.70
851;DHT22;412;51.400;7.480;2023-04-25T16:21:57;13.40;73.50
851;DHT22;412;51.400;7.480;2023-04-25T16:24:23;13.40;74.80
851;DHT22;412;51.400;7.480;2023-04-25T16:26:49;13.40;76.10
851;DHT22;412;51.400;7.480;2023-04-25T16:29:14;13.30;74.40
851;DHT22;412;51.400;7.480;2023-04-25T16:31:42;13.30;72.90
851;DHT22;412;51.400;7.480;2023-04-25T16:34:08;13.30;72.90
851;DHT22;412;51.400;7.480;2023-04-25T16:36:38;13.20;74.90
851;DHT22;412;51.400;7.480;2023-04-25T16:39:05;13.20;73.00
851;DHT22;412;51.400;7.480;2023-04-25T16:41:33;13.20;71.80